Time;durP1;ratioP1;P1;durP2;ratioP2;P2;SDS_P1;SDS_P2;PMS_P1;PMS_P2;Temp;Humidity;BMP_temperature;BMP_pressure;BME280_temperature;BME280_humidity;BME280_pressure;Samples;Min_cycle;Max_cycle;Signal;HPM_P1;HPM_P2
2021/09/23 00:02:16;;;;;;;10.27;6.90;;;13.30;1.00;;;;;;5107469;28;20199;-57
2021/09/23 00:04:42;;;;;;;17.43;8.00;;;13.30;1.00;;;;;;5109322;28;20191;-57
2021/09/23 00:07:08;;;;;;;13.77;6.90;;;13.30;1.00;;;;;;5109160;28;20436;-57
2021/09/23 00:09:35;;;;;;;13.10;7.80;;;13.30;1.00;;;;;;5106084;28;20424;-57
2021/09/23 00:12:00;;;;;;;12.73;7.90;;;13.30;1.00;;;;;;5097851;28;20497;-58
2021/09/23 00:14:26;;;;;;;12.57;7.30;;;13.20;1.00;;;;;;5110003;28;20856;-57
2021/09/23 00:16:51;;;;;;;12.30;7.33;;;13.30;1.00;;;;;;5112071;28;20704;-57
2021/09/23 00:19:18;;;;;;;11.77;7.10;;;13.20;1.00;;;;;;5109845;28;20199;-57
2021/09/23 00:21:43;;;;;;;14.67;7.50;;;13.20;1.00;;;;;;5092881;28;20218;-56
2021/09/23 00:24:09;;;;;;;9.50;6.60;;;13.20;1.00;;;;;;5096575;28;20468;-57
2021/09/23 00:26:35;;;;;;;11.80;6.63;;;13.10;1.00;;;;;;5110158;28;20440;-57
2021/09/23 00:29:03;;;;;;;13.17;7.97;;;13.10;1.00;;;;;;5112230;28;20441;-59
2021/09/23 00:31:32;;;;;;;10.37;6.30;;;13.10;1.00;;;;;;5101051;28;20289;-57
2021/09/23 00:33:58;;;;;;;9.70;7.07;;;13.10;1.00;;;;;;5108673;28;20478;-58
2021/09/23 00:36:23;;;;;;;12.47;7.53;;;13.10;1.00;;;;;;5102677;28;20840;-57
2021/09/23 00:38:49;;;;;;;9.50;6.03;;;13.00;1.00;;;;;;5106587;28;20183;-58
2021/09/23 00:41:14;;;;;;;10.30;6.90;;;13.00;1.00;;;;;;5111604;28;20608;-58
2021/09/23 00:43:40;;;;;;;11.33;6.73;;;13.00;1.00;;;;;;5109530;28;20228;-56
2021/09/23 00:46:06;;;;;;;12.10;7.40;;;13.00;1.00;;;;;;5107446;28;20184;-57
2021/09/23 00:48:31;;;;;;;15.40;6.80;;;12.90;1.00;;;;;;5107161;28;20188;-56
2021/09/23 00:50:58;;;;;;;9.50;6.60;;;12.90;1.00;;;;;;5111210;28;20214;-55
2021/09/23 00:53:25;;;;;;;11.20;6.40;;;13.00;1.00;;;;;;5094539;28;20194;-58
2021/09/23 00:55:50;;;;;;;12.20;7.00;;;12.90;1.00;;;;;;5109824;28;20976;-57
2021/09/23 00:58:16;;;;;;;10.43;6.70;;;12.90;1.00;;;;;;5108115;28;20437;-58
2021/09/23 01:00:43;;;;;;;11.90;6.87;;;12.90;1.00;;;;;;5105218;28;20202;-57
2021/09/23 01:03:12;;;;;;;11.43;6.70;;;12.80;1.00;;;;;;5110541;28;20202;-58
2021/09/23 01:05:37;;;;;;;13.00;7.37;;;12.80;1.00;;;;;;5105821;28;20448;-58
2021/09/23 01:08:03;;;;;;;10.30;7.20;;;12.80;1.00;;;;;;5107132;28;20448;-58
2021/09/23 01:10:29;;;;;;;9.60;7.60;;;12.80;1.00;;;;;;5107837;28;20194;-56
2021/09/23 01:12:54;;;;;;;10.40;7.20;;;13.00;1.00;;;;;;5106855;28;20186;-57
2021/09/23 01:15:20;;;;;;;13.43;7.17;;;13.00;1.00;;;;;;5105019;28;20206;-57
2021/09/23 01:17:46;;;;;;;9.50;8.00;;;12.90;1.00;;;;;;5106605;28;20240;-57
2021/09/23 01:20:12;;;;;;;9.97;6.70;;;12.90;1.00;;;;;;5109445;28;20201;-57
2021/09/23 01:22:38;;;;;;;11.93;8.27;;;12.70;1.00;;;;;;5108561;28;20785;-58
2021/09/23 01:25:06;;;;;;;20.73;12.73;;;12.70;1.00;;;;;;5110066;28;20435;-57
2021/09/23 01:27:32;;;;;;;17.80;7.90;;;12.70;1.00;;;;;;5092201;28;20559;-58
2021/09/23 01:29:59;;;;;;;14.53;7.70;;;12.70;1.00;;;;;;5109099;28;20434;-57
2021/09/23 01:32:24;;;;;;;10.73;6.80;;;12.80;1.00;;;;;;5107196;28;20940;-57
2021/09/23 01:34:50;;;;;;;11.20;7.43;;;12.80;1.00;;;;;;5105246;28;20448;-57
2021/09/23 01:37:16;;;;;;;11.97;7.97;;;12.80;1.00;;;;;;5109664;28;20183;-57
2021/09/23 01:39:41;;;;;;;11.83;7.27;;;12.70;1.00;;;;;;5109801;28;20186;-57
2021/09/23 01:42:07;;;;;;;12.20;7.00;;;12.60;1.00;;;;;;5110054;28;20462;-56
2021/09/23 01:44:34;;;;;;;13.20;7.80;;;12.70;1.00;;;;;;5108169;28;20698;-58
2021/09/23 01:46:59;;;;;;;10.40;7.03;;;12.70;1.00;;;;;;5108678;28;20548;-56
2021/09/23 01:49:25;;;;;;;11.73;6.70;;;12.70;1.00;;;;;;5110899;28;20462;-57
2021/09/23 01:51:50;;;;;;;10.30;6.77;;;12.80;1.00;;;;;;5107935;28;20185;-57
2021/09/23 01:54:17;;;;;;;8.20;6.73;;;12.80;1.00;;;;;;5106459;28;20183;-58
2021/09/23 01:56:43;;;;;;;10.50;7.70;;;12.80;1.00;;;;;;5109982;28;20488;-57
2021/09/23 01:59:09;;;;;;;8.37;6.70;;;12.90;1.00;;;;;;5109582;28;20521;-57
2021/09/23 02:01:35;;;;;;;11.63;6.27;;;12.90;1.00;;;;;;5107666;28;20585;-56
2021/09/23 02:04:00;;;;;;;9.60;6.50;;;13.00;1.00;;;;;;5105526;28;20712;-58
2021/09/23 02:06:26;;;;;;;8.53;6.40;;;13.00;1.00;;;;;;5109633;28;20470;-56
2021/09/23 02:08:52;;;;;;;7.03;5.83;;;13.10;1.00;;;;;;5104282;28;20517;-57
2021/09/23 02:11:17;;;;;;;8.73;6.60;;;13.70;1.00;;;;;;5108516;28;20182;-58
2021/09/23 02:13:43;;;;;;;13.20;6.50;;;13.20;1.00;;;;;;5103867;28;20187;-58
2021/09/23 02:16:09;;;;;;;9.60;5.87;;;13.20;1.00;;;;;;5108816;28;20189;-58
2021/09/23 02:18:34;;;;;;;10.73;7.03;;;13.20;1.00;;;;;;5103172;28;20186;-57
2021/09/23 02:21:00;;;;;;;13.00;5.80;;;13.20;1.00;;;;;;5108653;28;20662;-56
2021/09/23 02:23:25;;;;;;;7.93;6.57;;;13.20;1.00;;;;;;5109223;28;20206;-57
2021/09/23 02:25:51;;;;;;;8.80;6.70;;;13.20;1.00;;;;;;5092575;28;20187;-58
2021/09/23 02:28:16;;;;;;;8.60;5.70;;;13.10;1.00;;;;;;5108280;28;20252;-58
2021/09/23 02:30:42;;;;;;;7.23;5.50;;;13.00;1.00;;;;;;5105753;28;20175;-58
2021/09/23 02:33:08;;;;;;;7.93;6.43;;;13.00;1.00;;;;;;5109034;28;20194;-57
2021/09/23 02:35:33;;;;;;;9.40;5.67;;;12.80;1.00;;;;;;5108731;28;20537;-57
2021/09/23 02:37:59;;;;;;;8.93;6.57;;;12.80;1.00;;;;;;5104656;28;20485;-57
2021/09/23 02:40:25;;;;;;;9.50;6.20;;;12.60;1.00;;;;;;5106241;28;20194;-57
2021/09/23 02:42:50;;;;;;;7.00;6.30;;;12.60;1.00;;;;;;5108001;28;20209;-58
2021/09/23 02:45:16;;;;;;;8.60;6.27;;;12.60;1.00;;;;;;5107052;28;20233;-57
2021/09/23 02:47:42;;;;;;;8.07;6.50;;;12.60;1.00;;;;;;5107054;28;20182;-58
2021/09/23 02:50:09;;;;;;;7.20;6.23;;;12.60;1.00;;;;;;5113602;28;20293;-57
2021/09/23 02:52:35;;;;;;;8.30;6.03;;;12.50;1.00;;;;;;5111055;28;20440;-58
2021/09/23 02:55:00;;;;;;;14.13;6.10;;;12.50;1.00;;;;;;5112730;28;20428;-58
2021/09/23 02:57:26;;;;;;;6.97;6.30;;;12.50;1.00;;;;;;5110154;28;20190;-56
2021/09/23 02:59:51;;;;;;;12.10;6.90;;;12.40;1.00;;;;;;5109413;28;20581;-58
2021/09/23 03:02:18;;;;;;;13.30;7.13;;;12.40;1.00;;;;;;5108089;28;20231;-57
2021/09/23 03:04:43;;;;;;;8.63;5.87;;;12.40;1.00;;;;;;5108463;28;20190;-57
2021/09/23 03:07:09;;;;;;;10.40;6.53;;;12.30;1.00;;;;;;5112441;28;21016;-57
2021/09/23 03:09:34;;;;;;;9.77;6.57;;;12.30;1.00;;;;;;5112435;28;20186;-57
2021/09/23 03:12:00;;;;;;;8.90;6.97;;;12.20;1.00;;;;;;5109548;28;20179;-57
2021/09/23 03:14:26;;;;;;;10.47;6.90;;;12.20;1.00;;;;;;5110244;28;20198;-58
2021/09/23 03:16:51;;;;;;;7.20;6.50;;;12.20;3.40;;;;;;5111998;28;20190;-58
2021/09/23 03:19:17;;;;;;;7.93;7.13;;;12.10;14.90;;;;;;5095870;28;20181;-56
2021/09/23 03:21:42;;;;;;;11.07;7.17;;;12.10;20.00;;;;;;5109342;28;20567;-57
2021/09/23 03:24:09;;;;;;;7.40;6.43;;;12.20;21.90;;;;;;5111086;28;20251;-56
2021/09/23 03:26:35;;;;;;;8.80;7.47;;;12.10;21.80;;;;;;5107677;28;20196;-58
2021/09/23 03:29:05;;;;;;;8.07;6.70;;;12.20;19.20;;;;;;5112727;28;20445;-57
2021/09/23 03:31:32;;;;;;;7.27;6.13;;;12.10;19.90;;;;;;5108749;28;20515;-58
2021/09/23 03:33:58;;;;;;;8.70;7.30;;;12.10;21.10;;;;;;5109571;28;20430;-57
2021/09/23 03:36:24;;;;;;;13.10;8.00;;;12.10;23.40;;;;;;5109420;28;20440;-57
2021/09/23 03:38:52;;;;;;;11.50;7.70;;;12.10;24.70;;;;;;5108748;28;20194;-59
2021/09/23 03:41:18;;;;;;;13.00;6.50;;;12.10;24.00;;;;;;5110100;28;20443;-57
2021/09/23 03:43:44;;;;;;;7.53;6.83;;;12.00;22.30;;;;;;5094662;28;20444;-57
2021/09/23 03:46:09;;;;;;;8.50;6.53;;;12.00;27.00;;;;;;5092978;28;20255;-56
2021/09/23 03:48:35;;;;;;;9.90;7.47;;;12.00;30.50;;;;;;5110210;28;20286;-57
2021/09/23 03:51:01;;;;;;;9.67;7.80;;;12.00;41.40;;;;;;5107555;28;20230;-58
2021/09/23 03:53:26;;;;;;;13.73;7.60;;;11.90;41.30;;;;;;5104465;28;20191;-57
2021/09/23 03:55:52;;;;;;;11.60;7.50;;;12.00;43.70;;;;;;5104310;28;20242;-57
2021/09/23 03:58:18;;;;;;;11.53;7.30;;;11.90;43.50;;;;;;5112545;28;20697;-57
2021/09/23 04:00:43;;;;;;;13.07;8.33;;;12.00;58.30;;;;;;5107966;28;20190;-59
2021/09/23 04:03:09;;;;;;;12.40;7.60;;;11.90;62.70;;;;;;5108527;28;20207;-58
2021/09/23 04:05:34;;;;;;;10.10;7.83;;;11.90;73.30;;;;;;5110032;28;20612;-58
2021/09/23 04:08:01;;;;;;;10.20;7.70;;;11.90;76.60;;;;;;5110404;28;20191;-58
2021/09/23 04:10:27;;;;;;;10.87;7.30;;;12.00;70.30;;;;;;5112228;28;20498;-58
2021/09/23 04:12:55;;;;;;;10.40;7.97;;;12.00;69.50;;;;;;5106269;28;20471;-59
2021/09/23 04:15:23;;;;;;;10.60;8.13;;;12.00;70.30;;;;;;5109378;27;20575;-58
2021/09/23 04:17:50;;;;;;;11.77;8.20;;;11.90;74.00;;;;;;5110682;28;20945;-58
2021/09/23 04:20:16;;;;;;;10.20;7.30;;;12.00;71.80;;;;;;5110328;28;20781;-58
2021/09/23 04:22:42;;;;;;;10.70;7.20;;;11.90;62.70;;;;;;5107951;28;20457;-58
2021/09/23 04:25:09;;;;;;;12.00;7.60;;;11.90;62.70;;;;;;5110298;28;20178;-57
2021/09/23 04:27:34;;;;;;;14.20;8.20;;;11.90;62.80;;;;;;5104218;28;20498;-59
2021/09/23 04:30:00;;;;;;;10.10;6.90;;;11.90;64.00;;;;;;5111163;28;20866;-57
2021/09/23 04:32:25;;;;;;;10.47;7.50;;;11.90;60.70;;;;;;5110883;28;20614;-57
2021/09/23 04:34:51;;;;;;;13.07;7.70;;;11.80;58.20;;;;;;5114028;28;20193;-58
2021/09/23 04:37:17;;;;;;;13.53;8.30;;;11.90;61.70;;;;;;5108984;28;20563;-58
2021/09/23 04:39:42;;;;;;;12.13;7.00;;;11.80;63.10;;;;;;5113167;28;20227;-57
2021/09/23 04:42:08;;;;;;;11.10;7.53;;;11.80;62.40;;;;;;5113291;28;20206;-57
2021/09/23 04:44:33;;;;;;;9.27;6.67;;;11.90;61.50;;;;;;5110070;28;20186;-58
2021/09/23 04:47:02;;;;;;;19.27;13.60;;;11.90;57.10;;;;;;5110716;28;20229;-59
2021/09/23 04:49:28;;;;;;;13.93;9.47;;;11.80;58.90;;;;;;5108880;28;20690;-59
2021/09/23 04:51:54;;;;;;;10.10;7.30;;;11.80;60.00;;;;;;5108151;28;20472;-58
2021/09/23 04:54:20;;;;;;;9.73;7.70;;;11.80;59.60;;;;;;5109754;28;20478;-56
2021/09/23 04:56:45;;;;;;;15.53;8.57;;;11.70;59.60;;;;;;5109579;28;20248;-60
2021/09/23 04:59:11;;;;;;;11.47;8.83;;;11.70;69.90;;;;;;5112076;28;20652;-59
2021/09/23 05:01:36;;;;;;;13.97;7.90;;;11.80;62.70;;;;;;5106703;28;20255;-59
2021/09/23 05:04:02;;;;;;;10.00;7.83;;;11.80;66.20;;;;;;5111313;28;20236;-59
2021/09/23 05:06:28;;;;;;;8.50;7.23;;;11.80;63.20;;;;;;5110967;28;20183;-59
2021/09/23 05:08:53;;;;;;;13.73;7.70;;;11.80;59.10;;;;;;5112202;28;20175;-60
2021/09/23 05:11:19;;;;;;;11.90;7.70;;;11.80;62.60;;;;;;5111328;28;20190;-60
2021/09/23 05:13:45;;;;;;;9.50;7.87;;;11.80;60.40;;;;;;5111045;28;20183;-60
2021/09/23 05:16:11;;;;;;;10.93;7.87;;;11.90;53.40;;;;;;5111453;28;20182;-62
2021/09/23 05:18:36;;;;;;;8.30;7.37;;;11.80;53.70;;;;;;5111404;28;20443;-58
2021/09/23 05:21:02;;;;;;;9.60;7.13;;;11.80;51.70;;;;;;5110565;28;20256;-60
2021/09/23 05:23:27;;;;;;;10.60;9.43;;;11.90;46.50;;;;;;5111262;28;20707;-60
2021/09/23 05:25:53;;;;;;;12.27;9.13;;;11.90;47.90;;;;;;5112665;27;20179;-59
2021/09/23 05:28:18;;;;;;;13.93;8.83;;;11.90;49.90;;;;;;5112464;28;20186;-58
2021/09/23 05:30:44;;;;;;;10.30;8.37;;;11.90;52.20;;;;;;5110322;28;20167;-61
2021/09/23 05:33:11;;;;;;;8.73;7.20;;;11.90;49.80;;;;;;5110268;28;20184;-60
2021/09/23 05:35:37;;;;;;;11.70;8.70;;;12.00;48.00;;;;;;5109567;28;20711;-59
2021/09/23 05:38:03;;;;;;;14.50;8.07;;;12.00;47.60;;;;;;5107972;28;20540;-60
2021/09/23 05:40:28;;;;;;;10.03;8.30;;;12.00;47.30;;;;;;5108091;28;20655;-58
2021/09/23 05:42:54;;;;;;;9.37;7.83;;;12.00;46.00;;;;;;5111355;28;20206;-60
2021/09/23 05:45:19;;;;;;;9.43;8.60;;;12.10;41.60;;;;;;5111768;28;20239;-58
2021/09/23 05:47:46;;;;;;;12.80;8.23;;;12.10;41.90;;;;;;5112147;28;20186;-60
2021/09/23 05:50:13;;;;;;;9.07;7.93;;;12.20;39.30;;;;;;5106953;28;20210;-58
2021/09/23 05:52:39;;;;;;;11.20;8.73;;;12.20;38.20;;;;;;5105482;28;20468;-57
2021/09/23 05:55:06;;;;;;;16.00;8.90;;;12.20;38.90;;;;;;5106512;28;20411;-58
2021/09/23 05:57:40;;;;;;;14.67;11.93;;;12.30;39.20;;;;;;5105711;28;20986;-60
2021/09/23 06:00:12;;;;;;;14.87;11.37;;;12.40;34.20;;;;;;5111965;27;20475;-57
2021/09/23 06:02:37;;;;;;;13.60;9.10;;;12.40;34.70;;;;;;5109504;28;20468;-56
2021/09/23 06:05:03;;;;;;;10.83;8.67;;;12.40;31.10;;;;;;5109368;28;20520;-57
2021/09/23 06:07:29;;;;;;;13.67;8.93;;;12.50;30.90;;;;;;5110728;28;20189;-59
2021/09/23 06:09:54;;;;;;;9.30;8.30;;;12.60;22.10;;;;;;5111228;28;20436;-59
2021/09/23 06:12:20;;;;;;;12.73;9.23;;;12.70;22.10;;;;;;5111643;28;20831;-60
2021/09/23 06:14:46;;;;;;;13.10;9.27;;;12.90;13.70;;;;;;5107731;28;20202;-57
2021/09/23 06:17:13;;;;;;;11.20;8.03;;;13.00;1.00;;;;;;5106072;28;20174;-57
2021/09/23 06:19:38;;;;;;;13.33;9.00;;;13.00;1.00;;;;;;5109836;28;20426;-60
2021/09/23 06:22:04;;;;;;;11.20;8.30;;;13.10;1.00;;;;;;5104460;28;20479;-59
2021/09/23 06:24:29;;;;;;;9.23;8.33;;;13.20;1.00;;;;;;5112525;28;20186;-59
2021/09/23 06:26:55;;;;;;;11.37;7.57;;;13.30;1.00;;;;;;5114198;28;20416;-58
2021/09/23 06:29:21;;;;;;;12.10;7.57;;;13.40;1.00;;;;;;5113920;28;20196;-57
2021/09/23 06:31:47;;;;;;;11.37;9.00;;;13.50;1.00;;;;;;5111619;28;20237;-57
2021/09/23 06:34:13;;;;;;;10.47;8.10;;;13.70;1.00;;;;;;5098603;28;20532;-59
2021/09/23 06:36:38;;;;;;;9.33;8.30;;;13.90;1.00;;;;;;5114186;28;20429;-60
2021/09/23 06:39:05;;;;;;;9.50;8.30;;;14.00;1.00;;;;;;5115137;28;20510;-57
2021/09/23 06:41:31;;;;;;;22.80;13.20;;;14.10;1.00;;;;;;5115069;28;20386;-58
2021/09/23 06:43:56;;;;;;;11.90;8.33;;;14.20;1.00;;;;;;5114905;28;20602;-60
2021/09/23 06:46:22;;;;;;;11.80;8.70;;;14.30;1.00;;;;;;5102217;28;20497;-56
2021/09/23 06:48:50;;;;;;;10.07;9.07;;;14.50;1.00;;;;;;5114578;28;20184;-57
2021/09/23 06:51:16;;;;;;;8.77;7.87;;;14.70;1.00;;;;;;5114760;28;20269;-57
2021/09/23 06:53:41;;;;;;;11.07;7.90;;;14.90;1.00;;;;;;5107940;28;20498;-59
2021/09/23 06:56:07;;;;;;;9.23;7.83;;;14.90;1.00;;;;;;5108420;28;20529;-56
2021/09/23 06:58:32;;;;;;;11.73;7.77;;;14.90;1.00;;;;;;5113202;28;20197;-57
2021/09/23 07:00:58;;;;;;;11.30;8.93;;;15.00;1.00;;;;;;5111410;28;20186;-57
2021/09/23 07:03:23;;;;;;;10.83;9.70;;;15.00;1.00;;;;;;5112025;28;20206;-57
2021/09/23 07:05:49;;;;;;;8.30;7.50;;;15.00;1.00;;;;;;5111761;28;20179;-57
2021/09/23 07:08:17;;;;;;;11.47;9.07;;;15.10;1.00;;;;;;5102339;28;20528;-56
2021/09/23 07:10:43;;;;;;;11.00;7.50;;;15.10;1.00;;;;;;5110472;28;20184;-56
2021/09/23 07:13:09;;;;;;;11.97;8.20;;;15.20;1.00;;;;;;5104401;28;20578;-56
2021/09/23 07:15:34;;;;;;;10.37;7.70;;;15.30;1.00;;;;;;5113033;28;20472;-56
2021/09/23 07:18:00;;;;;;;7.80;7.03;;;15.40;1.00;;;;;;5113408;28;20192;-56
2021/09/23 07:20:25;;;;;;;9.00;7.97;;;15.60;1.00;;;;;;5114731;28;20202;-56
2021/09/23 07:22:51;;;;;;;11.10;8.03;;;15.80;1.00;;;;;;5106425;28;20202;-56
2021/09/23 07:25:19;;;;;;;7.77;7.07;;;16.00;1.00;;;;;;5114506;28;20266;-58
2021/09/23 07:27:45;;;;;;;8.90;7.13;;;16.20;1.00;;;;;;5114605;28;20178;-56
2021/09/23 07:30:11;;;;;;;13.37;7.87;;;16.30;1.00;;;;;;5114667;28;20891;-57
2021/09/23 07:32:37;;;;;;;8.40;7.60;;;16.50;1.00;;;;;;5114723;28;20207;-56
2021/09/23 07:35:03;;;;;;;10.87;7.60;;;16.60;1.00;;;;;;5114288;28;20904;-56
2021/09/23 07:37:29;;;;;;;10.90;7.13;;;16.60;1.00;;;;;;5114600;28;20638;-55
2021/09/23 07:39:54;;;;;;;9.57;7.60;;;16.60;1.00;;;;;;5114680;28;20465;-57
2021/09/23 07:42:20;;;;;;;8.30;7.30;;;16.70;1.00;;;;;;5114321;28;20204;-55
2021/09/23 07:44:45;;;;;;;11.73;8.37;;;16.70;1.00;;;;;;5114743;28;20624;-58
2021/09/23 07:47:11;;;;;;;10.43;8.40;;;16.90;1.00;;;;;;5114345;28;20184;-58
2021/09/23 07:49:36;;;;;;;10.60;7.40;;;16.90;1.00;;;;;;5114302;28;20237;-57
2021/09/23 07:52:02;;;;;;;8.20;7.43;;;17.00;1.00;;;;;;5114396;28;20664;-57
2021/09/23 07:54:28;;;;;;;8.03;7.33;;;17.10;1.00;;;;;;5101693;28;20187;-56
2021/09/23 07:56:53;;;;;;;9.50;7.63;;;17.20;1.00;;;;;;5114258;28;20408;-57
2021/09/23 07:59:19;;;;;;;8.50;7.40;;;17.40;1.00;;;;;;5113858;28;20191;-56
2021/09/23 08:01:44;;;;;;;11.43;6.90;;;17.90;1.00;;;;;;5114012;28;20213;-57
2021/09/23 08:04:10;;;;;;;15.10;8.00;;;18.40;1.00;;;;;;5113889;28;20583;-59
2021/09/23 08:06:36;;;;;;;18.80;9.47;;;18.80;1.00;;;;;;5110060;28;20529;-57
2021/09/23 08:09:01;;;;;;;12.70;7.43;;;19.00;1.00;;;;;;5113891;28;20185;-56
2021/09/23 08:11:27;;;;;;;9.13;7.50;;;19.00;1.00;;;;;;5113652;28;20669;-57
2021/09/23 08:13:52;;;;;;;9.30;7.97;;;19.20;1.00;;;;;;5113887;28;20252;-57
2021/09/23 08:16:18;;;;;;;8.73;6.60;;;19.60;1.00;;;;;;5113546;28;20648;-57
2021/09/23 08:18:43;;;;;;;5.57;5.10;;;19.90;1.00;;;;;;5113645;28;20300;-57
2021/09/23 08:21:09;;;;;;;5.97;5.37;;;20.30;1.00;;;;;;5113665;28;20190;-57
2021/09/23 08:23:35;;;;;;;6.60;5.77;;;20.50;1.00;;;;;;5113069;28;20208;-57
2021/09/23 08:26:00;;;;;;;5.80;5.20;;;20.70;1.00;;;;;;5113422;28;20209;-58
2021/09/23 08:28:27;;;;;;;5.83;5.00;;;21.20;1.00;;;;;;5103194;28;20175;-57
2021/09/23 08:30:55;;;;;;;7.37;4.97;;;21.50;1.00;;;;;;5113596;28;20554;-56
2021/09/23 08:33:22;;;;;;;4.70;4.30;;;22.00;1.00;;;;;;5113236;28;20406;-59
2021/09/23 08:35:47;;;;;;;4.63;4.23;;;22.30;1.00;;;;;;5113256;28;20461;-57
2021/09/23 08:38:16;;;;;;;4.70;4.23;;;22.30;1.00;;;;;;5113504;28;20478;-56
2021/09/23 08:40:41;;;;;;;4.90;3.50;;;21.80;1.00;;;;;;5113102;28;20179;-57
2021/09/23 08:43:07;;;;;;;6.23;3.70;;;21.70;1.00;;;;;;5113303;28;20496;-56
2021/09/23 08:45:32;;;;;;;4.10;3.30;;;21.50;1.00;;;;;;5112585;28;20195;-58
2021/09/23 08:47:59;;;;;;;4.17;3.77;;;21.00;1.00;;;;;;5112502;28;20181;-58
2021/09/23 08:50:24;;;;;;;4.53;4.13;;;20.80;1.00;;;;;;5100123;28;20229;-57
2021/09/23 08:52:50;;;;;;;5.07;3.60;;;20.70;1.00;;;;;;5112804;28;20412;-56
2021/09/23 08:55:23;;;;;;;6.07;3.90;;;20.50;1.00;;;;;;5113084;28;20191;-56
2021/09/23 08:57:49;;;;;;;3.80;3.23;;;20.50;1.00;;;;;;5111614;28;20670;-58
2021/09/23 09:00:15;;;;;;;4.17;3.37;;;20.50;1.00;;;;;;5112896;28;20405;-57
2021/09/23 09:02:40;;;;;;;3.73;3.30;;;20.40;1.00;;;;;;5112492;28;20213;-58
2021/09/23 09:05:06;;;;;;;3.67;3.37;;;20.40;1.00;;;;;;5112962;28;20432;-56
2021/09/23 09:07:32;;;;;;;3.80;3.43;;;20.40;1.00;;;;;;5109996;28;20678;-57
2021/09/23 09:10:06;;;;;;;4.87;2.90;;;20.00;1.00;;;;;;5112595;28;20416;-56
2021/09/23 09:12:32;;;;;;;3.50;2.90;;;19.80;1.00;;;;;;5112434;28;20182;-56
2021/09/23 09:14:59;;;;;;;3.80;3.50;;;19.70;1.00;;;;;;5102973;28;20421;-56
2021/09/23 09:17:26;;;;;;;4.27;3.57;;;19.60;1.00;;;;;;5112524;27;20432;-57
2021/09/23 09:19:55;;;;;;;5.73;3.73;;;19.90;1.00;;;;;;5112469;28;20415;-58
2021/09/23 09:22:24;;;;;;;6.70;3.97;;;20.00;1.00;;;;;;5112192;28;20462;-58
2021/09/23 09:25:05;;;;;;;7.33;2.97;;;19.90;1.00;;;;;;5112152;28;20400;-58
2021/09/23 09:27:37;;;;;;;6.60;3.50;;;19.90;1.00;;;;;;5118003;27;20434;-57
2021/09/23 09:30:10;;;;;;;4.27;3.30;;;19.90;1.00;;;;;;5112194;28;20886;-56
2021/09/23 09:32:40;;;;;;;3.83;2.87;;;20.10;1.00;;;;;;5112090;28;20502;-56
2021/09/23 09:35:08;;;;;;;5.20;3.80;;;20.30;1.00;;;;;;5106445;28;20418;-57
2021/09/23 09:37:34;;;;;;;5.33;3.63;;;20.40;1.00;;;;;;5112371;28;20445;-57
2021/09/23 09:40:00;;;;;;;3.90;3.60;;;20.70;1.00;;;;;;5112109;28;20409;-56
2021/09/23 09:42:28;;;;;;;5.33;3.60;;;21.00;1.00;;;;;;5112291;28;20431;-56
2021/09/23 09:44:58;;;;;;;6.63;3.87;;;21.10;1.00;;;;;;5106466;28;20410;-56
2021/09/23 09:47:43;;;;;;;4.53;3.23;;;20.90;1.00;;;;;;5106430;28;20438;-56
2021/09/23 09:50:14;;;;;;;3.80;3.30;;;20.60;1.00;;;;;;5111266;28;20469;-59
2021/09/23 09:52:46;;;;;;;3.50;3.20;;;20.70;1.00;;;;;;5112020;28;20462;-58
2021/09/23 09:55:12;;;;;;;3.80;3.50;;;21.00;1.00;;;;;;5111292;28;20439;-58
2021/09/23 09:57:46;;;;;;;4.27;3.70;;;21.10;1.00;;;;;;5111789;28;20429;-59
2021/09/23 10:00:13;;;;;;;4.03;3.37;;;21.00;1.00;;;;;;5104027;28;20801;-58
2021/09/23 10:02:39;;;;;;;4.80;3.23;;;21.20;1.00;;;;;;5111658;28;20583;-57
2021/09/23 10:05:05;;;;;;;5.10;3.53;;;21.20;1.00;;;;;;5111672;28;21350;-56
2021/09/23 10:07:34;;;;;;;8.23;3.73;;;21.40;1.00;;;;;;5111715;28;20396;-58
2021/09/23 10:10:01;;;;;;;3.73;3.27;;;21.60;1.00;;;;;;5111464;28;21160;-56
2021/09/23 10:12:28;;;;;;;4.97;3.40;;;21.60;1.00;;;;;;5111887;28;20498;-56
2021/09/23 10:14:54;;;;;;;4.50;3.23;;;21.50;1.00;;;;;;5111441;28;20417;-58
2021/09/23 10:17:21;;;;;;;5.67;3.37;;;21.60;1.00;;;;;;5111493;28;20464;-57
2021/09/23 10:19:48;;;;;;;4.33;3.60;;;21.80;1.00;;;;;;5111771;28;20481;-57
2021/09/23 10:22:14;;;;;;;4.20;3.80;;;22.10;1.00;;;;;;5111542;28;20913;-57
2021/09/23 10:24:44;;;;;;;6.93;3.10;;;22.10;1.00;;;;;;5111656;28;20460;-58
2021/09/23 10:29:57;;;;;;;3.57;3.07;;;22.10;1.00;;;;;;5110855;28;20519;-55
2021/09/23 10:32:23;;;;;;;3.80;3.33;;;22.10;1.00;;;;;;5111034;28;20753;-54
2021/09/23 10:34:52;;;;;;;4.97;3.77;;;22.10;1.00;;;;;;5110715;28;20445;-54
2021/09/23 10:37:18;;;;;;;4.00;3.37;;;22.40;1.00;;;;;;5110612;28;20273;-54
2021/09/23 10:39:45;;;;;;;3.70;3.40;;;22.70;1.00;;;;;;5110807;28;20428;-53
2021/09/23 10:42:20;;;;;;;4.73;3.13;;;22.80;1.00;;;;;;5109073;28;21023;-55
2021/09/23 10:44:51;;;;;;;3.57;3.27;;;22.80;1.00;;;;;;5110793;28;20399;-53
2021/09/23 10:47:28;;;;;;;3.73;3.43;;;22.60;1.00;;;;;;5110735;28;20842;-54
2021/09/23 10:49:55;;;;;;;4.43;3.60;;;22.50;1.00;;;;;;5092194;28;20430;-53
2021/09/23 10:52:25;;;;;;;4.00;3.60;;;22.70;1.00;;;;;;5110329;28;20432;-57
2021/09/23 10:54:52;;;;;;;4.30;3.20;;;22.60;1.00;;;;;;5110731;28;20435;-58
2021/09/23 10:57:20;;;;;;;3.60;3.30;;;22.50;1.00;;;;;;5106913;28;20872;-56
2021/09/23 10:59:49;;;;;;;3.57;2.90;;;22.40;1.00;;;;;;5110345;28;20416;-56
2021/09/23 11:02:29;;;;;;;4.30;3.00;;;22.30;1.00;;;;;;5110066;28;20478;-58
2021/09/23 11:04:57;;;;;;;2.90;2.60;;;22.50;1.00;;;;;;5092143;28;21005;-57
2021/09/23 11:07:24;;;;;;;4.23;3.40;;;23.20;1.00;;;;;;5110343;28;20443;-57
2021/09/23 11:10:13;;;;;;;5.20;3.30;;;23.20;1.00;;;;;;5093504;28;20474;-57
2021/09/23 11:12:41;;;;;;;6.70;3.67;;;23.60;1.00;;;;;;5095803;28;20515;-57
2021/09/23 11:15:09;;;;;;;3.50;3.20;;;23.70;1.00;;;;;;5095605;28;20423;-59
2021/09/23 11:17:35;;;;;;;3.23;2.83;;;23.40;1.00;;;;;;5095693;28;20422;-56
2021/09/23 11:20:10;;;;;;;2.80;2.60;;;23.30;1.00;;;;;;5095691;28;20511;-57
2021/09/23 11:22:42;;;;;;;3.50;2.70;;;23.30;1.00;;;;;;5112933;28;20447;-57
2021/09/23 11:25:17;;;;;;;2.90;2.70;;;23.10;1.00;;;;;;5113892;28;20955;-57
2021/09/23 11:27:46;;;;;;;2.73;2.53;;;23.10;1.00;;;;;;5097764;28;20471;-57
2021/09/23 11:30:14;;;;;;;3.47;2.87;;;23.20;1.00;;;;;;5104740;28;20439;-59
2021/09/23 11:32:47;;;;;;;3.40;2.57;;;23.40;1.00;;;;;;5114642;28;20422;-57
2021/09/23 11:35:12;;;;;;;4.80;3.20;;;23.60;1.00;;;;;;5114360;28;20524;-56
2021/09/23 11:37:38;;;;;;;3.90;3.60;;;23.40;1.00;;;;;;5114339;28;20459;-57
2021/09/23 11:40:06;;;;;;;3.37;3.07;;;23.40;1.00;;;;;;5114322;28;20274;-59
2021/09/23 11:42:32;;;;;;;4.93;3.10;;;23.60;1.00;;;;;;5113849;28;20293;-57
2021/09/23 11:45:25;;;;;;;4.70;3.00;;;23.80;1.00;;;;;;5114571;28;20895;-57
2021/09/23 11:47:51;;;;;;;4.10;2.93;;;23.80;1.00;;;;;;5105722;28;20411;-59
2021/09/23 11:50:37;;;;;;;3.50;3.20;;;23.90;1.00;;;;;;5095387;28;20793;-57
2021/09/23 11:53:09;;;;;;;4.53;3.53;;;24.20;1.00;;;;;;5093656;28;20240;-58
2021/09/23 11:55:41;;;;;;;3.50;3.20;;;23.90;1.00;;;;;;5092385;28;20437;-57
2021/09/23 11:58:10;;;;;;;3.90;3.60;;;23.40;1.00;;;;;;5093808;28;20532;-57
2021/09/23 12:00:42;;;;;;;4.37;3.27;;;23.10;1.00;;;;;;5094009;28;20496;-58
2021/09/23 12:03:10;;;;;;;5.60;3.90;;;23.20;1.00;;;;;;5093587;28;20464;-57
2021/09/23 12:05:39;;;;;;;4.00;3.53;;;23.30;1.00;;;;;;5092059;28;20441;-59
2021/09/23 12:08:05;;;;;;;3.63;3.33;;;23.60;1.00;;;;;;5092285;28;20453;-56
2021/09/23 12:10:31;;;;;;;3.60;3.30;;;23.90;1.00;;;;;;5093480;28;20914;-58
2021/09/23 12:12:58;;;;;;;4.40;3.70;;;23.50;1.00;;;;;;5093604;28;20411;-58
2021/09/23 12:15:25;;;;;;;3.53;3.23;;;23.30;1.00;;;;;;5092151;28;20652;-57
2021/09/23 12:17:56;;;;;;;3.50;3.20;;;23.40;1.00;;;;;;5091692;28;20408;-58
2021/09/23 12:20:40;;;;;;;4.13;3.60;;;23.60;1.00;;;;;;5093292;28;20452;-57
2021/09/23 12:23:28;;;;;;;5.10;3.90;;;23.90;1.00;;;;;;5087474;28;20440;-58
2021/09/23 12:26:11;;;;;;;4.10;3.20;;;23.90;1.00;;;;;;5091794;28;20520;-58
2021/09/23 12:28:59;;;;;;;4.57;4.07;;;23.60;1.00;;;;;;5092913;28;20461;-58
2021/09/23 12:31:37;;;;;;;4.37;3.97;;;23.60;1.00;;;;;;5093036;28;20555;-57
2021/09/23 12:34:10;;;;;;;5.50;4.00;;;23.60;1.00;;;;;;5085804;28;20511;-57
2021/09/23 12:36:45;;;;;;;4.80;3.80;;;23.60;1.00;;;;;;5092449;28;20823;-57
2021/09/23 12:39:22;;;;;;;4.83;4.10;;;23.90;1.00;;;;;;5092156;28;20446;-58
2021/09/23 12:41:51;;;;;;;6.40;4.87;;;23.90;1.00;;;;;;5092222;28;20893;-57
2021/09/23 12:44:24;;;;;;;4.33;3.93;;;23.60;1.00;;;;;;5093015;28;20818;-56
2021/09/23 12:47:11;;;;;;;3.87;3.57;;;23.50;1.00;;;;;;5091700;28;20850;-57
2021/09/23 12:49:41;;;;;;;4.27;3.87;;;23.30;1.00;;;;;;5100024;28;20472;-57
2021/09/23 12:52:15;;;;;;;3.77;2.90;;;23.30;1.00;;;;;;5112178;28;20432;-57
2021/09/23 12:54:51;;;;;;;3.90;3.50;;;23.30;1.00;;;;;;5112848;28;20455;-57